Grand-Sault, Canada
Current Conditions -  °F | °C
As of 3:54 PM on Thursday 30 Oct 2014 (Local Time) from KCAR Reporting Station
Overcast Overcast  
Wind Chill: 43°   Ceiling: 5500
Heat Index: 48°   Visibility: 10mi
Dew Point: 31°   Wind: 10mph
Humidity: 52%   Direction: 310°NW
Pressure: 29.81"   Gusts: NA
Location:  47.05°N, 67.73°W
Report Text: KCAR 301854Z AUTO 31009KT 10SM OVC055 09/M01 A2981 RMK AO2 SLP101 T00891006 PNO $
Loading
Personal Weather Stations






























Interactive Weather Map
Tropical Storm Tracking
New forecast layout! Learn more

10-Day Weather Forecast

Advertisements
Track Severe Weather on mobile